Time;durP1;ratioP1;P1;durP2;ratioP2;P2;SDS_P1;SDS_P2;PMS_P1;PMS_P2;Temp;Humidity;BMP_temperature;BMP_pressure;BME280_temperature;BME280_humidity;BME280_pressure;Samples;Min_cycle;Max_cycle;Signal;HPM_P1;HPM_P2
2023/07/15 00:01:25;;;;;;;8.15;2.80;;;;;;;22.64;47.68;100291.53;5074694;28;20063;-77
2023/07/15 00:03:51;;;;;;;4.47;2.78;;;;;;;22.61;46.99;100291.06;5079863;28;20027;-77
2023/07/15 00:06:17;;;;;;;6.18;2.85;;;;;;;22.59;47.31;100293.97;5097112;28;20031;-76
2023/07/15 00:08:44;;;;;;;3.92;2.80;;;;;;;22.50;47.79;100276.16;5115141;28;20077;-77
2023/07/15 00:11:25;;;;;;;5.72;3.58;;;;;;;22.51;47.77;100283.22;5096685;28;20034;-77
2023/07/15 00:13:50;;;;;;;6.50;3.20;;;;;;;22.43;47.51;100276.03;5056438;28;20032;-77
2023/07/15 00:16:17;;;;;;;5.43;3.00;;;;;;;22.40;47.35;100276.41;5073270;28;20017;-76
2023/07/15 00:18:42;;;;;;;6.63;2.72;;;;;;;22.45;47.13;100289.41;5072936;28;20028;-77
2023/07/15 00:21:20;;;;;;;7.07;2.85;;;;;;;22.45;47.13;100278.56;5073295;28;20025;-77
2023/07/15 00:23:53;;;;;;;8.02;3.15;;;;;;;22.41;47.92;100282.66;5073216;28;20032;-77
2023/07/15 00:26:19;;;;;;;7.25;2.90;;;;;;;22.37;47.08;100281.38;5094577;28;20039;-77
2023/07/15 00:28:46;;;;;;;6.72;3.05;;;;;;;22.35;47.24;100273.41;5076286;28;20020;-77
2023/07/15 00:31:14;;;;;;;5.43;2.80;;;;;;;22.37;47.00;100273.25;5094575;28;20031;-77
2023/07/15 00:33:40;;;;;;;4.80;2.70;;;;;;;22.39;47.14;100280.16;5109956;28;20431;-77
2023/07/15 00:36:07;;;;;;;9.15;3.15;;;;;;;22.38;46.83;100273.06;5094282;28;20395;-77
2023/07/15 00:38:35;;;;;;;5.65;2.80;;;;;;;22.39;47.25;100273.91;5109413;28;20043;-77
2023/07/15 00:41:01;;;;;;;8.90;2.47;;;;;;;22.44;47.33;100280.44;5094250;28;20040;-77
2023/07/15 00:43:51;;;;;;;4.25;2.85;;;;;;;22.41;47.75;100290.78;5093641;28;20035;-77
2023/07/15 00:46:22;;;;;;;4.50;2.70;;;;;;;22.35;47.73;100291.56;5094049;28;20040;-77
2023/07/15 00:49:02;;;;;;;7.80;3.17;;;;;;;22.36;47.60;100291.38;5093688;28;20024;-77
2023/07/15 00:51:31;;;;;;;14.80;3.40;;;;;;;22.26;47.26;100285.38;5108810;28;20024;-76
2023/07/15 00:53:57;;;;;;;;;;;;;;;22.41;47.59;100299.78;5109580;28;20034;-76
2023/07/15 00:56:25;;;;;;;6.05;3.28;;;;;;;22.27;47.64;100297.91;5109541;28;19975;-77
2023/07/15 00:58:51;;;;;;;5.88;2.55;;;;;;;22.20;47.52;100288.84;5093530;28;20024;-77
2023/07/15 01:01:20;;;;;;;6.75;2.85;;;;;;;22.14;47.43;100282.25;5093874;28;20032;-77
2023/07/15 01:03:47;;;;;;;13.80;3.33;;;;;;;22.16;48.04;100295.63;5092410;28;20019;-77
2023/07/15 01:06:13;;;;;;;4.75;2.97;;;;;;;22.11;47.70;100287.22;5075754;28;20035;-76
2023/07/15 01:08:39;;;;;;;6.25;2.92;;;;;;;22.04;47.72;100279.00;5075135;28;20024;-76
2023/07/15 01:11:06;;;;;;;6.70;2.67;;;;;;;22.00;47.97;100292.06;5093198;28;20554;-77
2023/07/15 01:13:32;;;;;;;3.90;2.47;;;;;;;21.96;48.35;100292.63;5107937;28;20141;-77
2023/07/15 01:15:57;;;;;;;6.57;2.75;;;;;;;21.91;48.58;100286.91;5093736;28;20119;-77
2023/07/15 01:18:23;;;;;;;4.80;2.50;;;;;;;21.85;48.62;100284.94;5091963;28;20062;-77
2023/07/15 01:20:50;;;;;;;5.25;2.72;;;;;;;21.79;48.67;100294.63;5092239;28;20024;-77
2023/07/15 01:23:18;;;;;;;7.15;2.97;;;;;;;21.75;48.78;100288.75;5093338;28;20103;-77
2023/07/15 01:25:43;;;;;;;4.82;2.65;;;;;;;21.68;49.40;100293.22;5093706;28;20493;-77
2023/07/15 01:28:11;;;;;;;5.07;2.83;;;;;;;21.72;48.91;100289.13;5093442;28;20048;-77
2023/07/15 01:30:39;;;;;;;4.32;2.60;;;;;;;21.68;49.43;100292.41;5108033;28;20028;-77
2023/07/15 01:33:04;;;;;;;5.53;2.58;;;;;;;21.65;50.48;100287.31;5071521;28;20032;-77
2023/07/15 01:35:32;;;;;;;6.15;2.78;;;;;;;21.51;50.25;100276.28;5085892;28;20485;-77
2023/07/15 01:37:57;;;;;;;5.53;2.90;;;;;;;21.56;49.22;100292.00;5107867;28;20036;-77
2023/07/15 01:40:23;;;;;;;3.35;2.63;;;;;;;21.46;50.62;100283.25;5074419;28;20031;-77
2023/07/15 01:42:48;;;;;;;5.70;2.97;;;;;;;21.43;49.65;100283.63;5100448;28;20073;-77
2023/07/15 01:45:14;;;;;;;9.52;3.65;;;;;;;21.46;50.46;100291.38;5074354;28;20056;-76
2023/07/15 01:47:39;;;;;;;7.80;2.58;;;;;;;21.47;49.85;100298.47;5074347;28;20024;-77
2023/07/15 01:50:08;;;;;;;6.95;2.78;;;;;;;21.30;51.60;100295.03;5074410;28;20054;-77
2023/07/15 01:52:34;;;;;;;8.18;2.72;;;;;;;21.33;51.03;100289.25;5090047;28;20024;-77
2023/07/15 01:55:01;;;;;;;4.78;2.80;;;;;;;21.35;50.70;100305.28;5073533;28;20024;-77
2023/07/15 01:57:29;;;;;;;12.93;3.55;;;;;;;21.27;50.53;100308.91;5074582;28;20070;-77
2023/07/15 01:59:57;;;;;;;6.93;2.40;;;;;;;21.29;50.40;100314.97;5081128;28;20030;-77
2023/07/15 02:02:26;;;;;;;6.53;2.70;;;;;;;21.24;50.77;100314.69;5092827;28;20391;-77
2023/07/15 02:04:53;;;;;;;;;;;;;;;21.39;50.53;100320.19;5091795;28;20127;-77
2023/07/15 02:07:18;;;;;;;5.18;2.80;;;;;;;21.04;51.87;100317.84;5093358;28;20324;-77
2023/07/15 02:09:43;;;;;;;3.55;2.47;;;;;;;21.10;51.62;100305.47;5093585;28;20024;-77
2023/07/15 02:12:09;;;;;;;3.70;2.47;;;;;;;21.07;53.02;100308.53;5075726;28;20028;-77
2023/07/15 02:14:38;;;;;;;6.93;2.50;;;;;;;20.99;53.12;100301.28;5075834;28;20115;-77
2023/07/15 02:17:05;;;;;;;6.07;2.92;;;;;;;20.86;53.64;100304.59;5082167;28;20043;-77
2023/07/15 02:19:31;;;;;;;4.43;3.03;;;;;;;20.81;53.93;100300.72;5092464;28;20016;-77
2023/07/15 02:21:57;;;;;;;7.65;2.95;;;;;;;20.68;54.48;100306.72;5091806;28;20024;-77
2023/07/15 02:24:23;;;;;;;4.85;2.53;;;;;;;20.63;54.89;100318.03;5091890;28;20433;-77
2023/07/15 02:26:48;;;;;;;6.28;2.95;;;;;;;20.79;54.48;100322.50;5093181;28;20036;-77
2023/07/15 02:29:13;;;;;;;4.18;2.63;;;;;;;20.61;54.86;100306.56;5091843;28;20036;-77
2023/07/15 02:31:39;;;;;;;5.03;2.88;;;;;;;20.62;54.75;100307.41;5090956;28;20059;-77
2023/07/15 02:34:05;;;;;;;5.57;2.67;;;;;;;20.48;55.66;100314.34;5091154;28;20078;-77
2023/07/15 02:36:33;;;;;;;5.88;2.85;;;;;;;20.54;55.81;100304.75;5091737;28;20107;-77
2023/07/15 02:39:05;;;;;;;6.95;3.00;;;;;;;20.51;56.03;100315.88;5073029;28;20529;-77
2023/07/15 02:41:32;;;;;;;5.20;2.60;;;;;;;20.50;55.54;100320.44;5073665;28;20111;-77
2023/07/15 02:43:57;;;;;;;7.93;2.70;;;;;;;20.39;55.85;100299.19;5091421;28;20027;-77
2023/07/15 02:46:23;;;;;;;4.18;2.80;;;;;;;20.35;56.20;100322.16;5069729;28;20033;-77
2023/07/15 02:48:48;;;;;;;4.25;2.65;;;;;;;20.25;56.78;100316.94;5090988;28;20067;-76
2023/07/15 02:51:13;;;;;;;7.80;3.00;;;;;;;20.26;56.67;100304.28;5066304;28;20488;-77
2023/07/15 02:53:39;;;;;;;5.57;2.90;;;;;;;20.26;57.30;100304.28;5071786;28;20024;-77
2023/07/15 02:56:05;;;;;;;3.97;3.00;;;;;;;20.16;56.90;100313.44;5071928;28;20021;-77
2023/07/15 02:58:31;;;;;;;6.10;2.88;;;;;;;20.04;57.68;100303.16;5071248;28;20085;-77
2023/07/15 03:00:56;;;;;;;6.20;3.00;;;;;;;20.16;57.53;100304.50;5071326;28;20555;-77
2023/07/15 03:03:25;;;;;;;5.05;2.80;;;;;;;20.08;57.64;100305.34;5070298;28;20033;-76
2023/07/15 03:05:51;;;;;;;5.57;3.08;;;;;;;19.97;58.39;100316.47;5104126;28;20436;-76
2023/07/15 03:08:17;;;;;;;4.90;3.00;;;;;;;20.11;58.04;100309.56;5069865;28;20495;-77
2023/07/15 03:10:44;;;;;;;6.28;2.70;;;;;;;20.05;58.46;100304.84;5072804;28;20032;-77
2023/07/15 03:13:12;;;;;;;7.80;3.67;;;;;;;19.87;58.54;100307.75;5089098;28;20546;-77
2023/07/15 03:15:40;;;;;;;8.57;2.80;;;;;;;19.99;57.89;100311.75;5091558;28;20104;-77
2023/07/15 03:18:07;;;;;;;6.43;2.90;;;;;;;19.72;59.00;100300.31;5090366;28;20028;-77
2023/07/15 03:20:35;;;;;;;4.03;3.20;;;;;;;19.85;59.29;100304.34;5081466;28;20025;-77
2023/07/15 03:23:00;;;;;;;6.68;3.22;;;;;;;19.61;59.53;100302.50;5070162;28;20578;-77
2023/07/15 03:25:26;;;;;;;7.75;3.17;;;;;;;19.72;59.47;100313.81;5103306;28;20149;-77
2023/07/15 03:27:51;;;;;;;5.93;3.40;;;;;;;19.64;60.43;100312.94;5099943;28;20032;-76
2023/07/15 03:30:18;;;;;;;9.40;3.47;;;;;;;19.55;60.56;100313.97;5084017;28;20110;-77
2023/07/15 03:32:46;;;;;;;5.78;3.85;;;;;;;19.45;60.83;100284.47;5051589;28;20025;-77
2023/07/15 03:35:12;;;;;;;8.52;3.60;;;;;;;19.62;60.33;100302.34;5084577;28;20388;-77
2023/07/15 03:37:40;;;;;;;8.77;3.58;;;;;;;19.62;60.80;100309.56;5087209;28;20036;-77
2023/07/15 03:40:10;;;;;;;7.30;3.20;;;;;;;19.58;60.14;100302.84;5061378;28;20094;-76
2023/07/15 03:42:35;;;;;;;4.65;3.20;;;;;;;19.66;60.25;100314.50;5107448;28;20514;-77
2023/07/15 03:45:02;;;;;;;7.53;3.30;;;;;;;19.45;60.69;100314.13;5084468;28;20044;-77
2023/07/15 03:47:27;;;;;;;5.35;3.47;;;;;;;19.58;60.79;100308.22;5077106;28;20020;-76
2023/07/15 03:49:56;;;;;;;16.92;4.13;;;;;;;19.41;61.30;100313.63;5095117;28;20035;-77
2023/07/15 03:52:21;;;;;;;19.58;4.63;;;;;;;19.45;61.51;100312.28;5095210;28;20024;-77
2023/07/15 03:54:47;;;;;;;16.33;3.58;;;;;;;19.22;62.09;100300.44;5076366;28;20038;-77
2023/07/15 03:57:12;;;;;;;9.07;3.88;;;;;;;19.17;62.25;100292.84;5095178;28;20077;-77
2023/07/15 03:59:38;;;;;;;8.48;3.30;;;;;;;19.31;61.53;100306.69;5076490;28;20048;-77
2023/07/15 04:02:04;;;;;;;6.78;3.50;;;;;;;19.26;61.81;100308.03;5110541;28;20027;-77
2023/07/15 04:04:31;;;;;;;7.88;3.50;;;;;;;19.40;62.01;100303.84;5094534;28;20461;-76
2023/07/15 04:07:01;;;;;;;6.50;3.70;;;;;;;18.98;62.28;100285.91;5076950;28;20016;-76
2023/07/15 04:09:28;;;;;;;5.75;3.40;;;;;;;19.33;61.75;100299.28;5109244;28;20035;-77
2023/07/15 04:11:54;;;;;;;10.05;3.67;;;;;;;19.19;62.80;100308.88;5094377;28;20395;-76
2023/07/15 04:14:20;;;;;;;10.38;3.72;;;;;;;19.33;62.26;100316.31;5110273;28;20031;-77
2023/07/15 04:16:47;;;;;;;9.18;3.92;;;;;;;19.33;63.11;100307.38;5110547;28;20020;-76
2023/07/15 04:19:15;;;;;;;8.60;3.38;;;;;;;19.12;62.93;100307.81;5105681;28;20032;-77
2023/07/15 04:21:41;;;;;;;5.55;3.97;;;;;;;19.30;62.72;100313.94;5094428;28;20387;-77
2023/07/15 04:24:06;;;;;;;5.82;3.92;;;;;;;19.15;63.08;100308.38;5109865;28;20024;-77
2023/07/15 04:26:32;;;;;;;8.85;3.78;;;;;;;19.30;63.75;100308.56;5094285;28;20407;-77
2023/07/15 04:29:00;;;;;;;10.70;3.53;;;;;;;19.28;63.70;100318.66;5109010;28;20023;-77
2023/07/15 04:31:28;;;;;;;6.60;3.47;;;;;;;19.32;63.28;100311.91;5094177;28;20024;-77
2023/07/15 04:33:55;;;;;;;5.53;3.30;;;;;;;19.26;63.50;100316.13;5094296;28;20263;-77
2023/07/15 04:36:21;;;;;;;7.10;3.70;;;;;;;19.27;63.91;100315.13;5084916;28;20051;-77
2023/07/15 04:38:47;;;;;;;7.57;3.80;;;;;;;19.29;64.90;100323.03;5093294;28;20062;-77
2023/07/15 04:41:13;;;;;;;9.23;3.30;;;;;;;19.20;64.39;100314.09;5075898;28;20016;-77
2023/07/15 04:43:39;;;;;;;5.80;2.97;;;;;;;19.34;63.68;100327.94;5076037;28;20024;-77
2023/07/15 04:46:05;;;;;;;5.63;3.15;;;;;;;19.39;64.08;100329.13;5092159;28;20078;-77
2023/07/15 04:48:33;;;;;;;8.38;3.70;;;;;;;19.46;64.27;100329.28;5075160;28;20379;-77
2023/07/15 04:50:59;;;;;;;10.10;4.00;;;;;;;19.48;64.31;100335.38;5110011;28;20027;-77
2023/07/15 04:53:27;;;;;;;10.82;4.10;;;;;;;19.50;63.83;100333.34;5094013;28;20031;-77
2023/07/15 04:55:53;;;;;;;8.65;3.75;;;;;;;19.56;65.06;100330.00;5075946;28;20032;-77
2023/07/15 04:58:19;;;;;;;4.30;3.55;;;;;;;19.58;64.93;100333.34;5073614;28;20013;-77
2023/07/15 05:00:46;;;;;;;5.93;3.75;;;;;;;19.55;65.48;100324.75;5075729;28;20391;-77
2023/07/15 05:03:12;;;;;;;4.90;3.63;;;;;;;19.42;65.95;100295.59;5093993;28;20023;-77
2023/07/15 05:05:41;;;;;;;8.00;3.53;;;;;;;19.69;64.67;100324.94;5075810;28;20024;-77
2023/07/15 05:08:19;;;;;;;6.75;3.17;;;;;;;19.76;64.94;100324.28;5108659;28;20179;-77
2023/07/15 05:10:46;;;;;;;8.88;3.75;;;;;;;19.86;63.84;100330.34;5097626;28;20020;-77
2023/07/15 05:13:15;;;;;;;3.80;3.13;;;;;;;19.89;61.41;100328.16;5063545;28;20016;-77
2023/07/15 05:15:41;;;;;;;5.75;3.50;;;;;;;19.93;60.96;100321.38;5109392;28;20027;-77
2023/07/15 05:18:07;;;;;;;8.07;3.65;;;;;;;20.04;60.71;100325.59;5105341;28;20299;-77
2023/07/15 05:20:34;;;;;;;4.93;3.63;;;;;;;20.15;60.80;100338.75;5074825;28;20391;-77
2023/07/15 05:23:04;;;;;;;5.78;3.80;;;;;;;20.15;60.33;100322.56;5074788;28;20028;-76
2023/07/15 05:25:33;;;;;;;6.72;3.40;;;;;;;20.20;60.89;100313.91;5074229;28;20478;-76
2023/07/15 05:27:59;;;;;;;6.03;3.58;;;;;;;20.27;60.02;100316.78;5092858;28;20128;-76
2023/07/15 05:30:27;;;;;;;4.78;3.50;;;;;;;20.39;60.01;100334.31;5074838;28;20475;-77
2023/07/15 05:32:54;;;;;;;6.68;3.58;;;;;;;20.38;60.27;100325.38;5093245;28;20462;-76
2023/07/15 05:35:22;;;;;;;5.50;3.30;;;;;;;20.50;59.58;100330.38;5074957;28;20031;-77
2023/07/15 05:37:48;;;;;;;8.82;3.42;;;;;;;20.50;60.81;100324.97;5092607;28;20031;-77
2023/07/15 05:40:13;;;;;;;7.85;2.90;;;;;;;20.70;60.02;100328.16;5092421;28;20383;-77
2023/07/15 05:42:45;;;;;;;5.68;3.10;;;;;;;20.74;60.49;100332.19;5074603;28;20430;-77
2023/07/15 05:45:11;;;;;;;5.78;3.55;;;;;;;20.86;59.03;100341.59;5074712;28;20430;-77
2023/07/15 05:47:38;;;;;;;8.40;3.55;;;;;;;20.84;60.34;100338.22;5074399;28;20044;-77
2023/07/15 05:50:04;;;;;;;8.65;3.83;;;;;;;20.92;57.99;100345.47;5108343;28;20027;-77
2023/07/15 05:52:30;;;;;;;8.60;3.47;;;;;;;20.84;57.98;100339.06;5108013;28;20034;-76
2023/07/15 05:54:55;;;;;;;10.98;3.63;;;;;;;20.90;58.77;100347.50;5092249;28;20035;-77
2023/07/15 05:57:21;;;;;;;3.78;3.28;;;;;;;20.84;58.50;100338.22;5074312;28;20027;-77
2023/07/15 05:59:46;;;;;;;6.65;3.17;;;;;;;21.00;58.38;100348.97;5107362;28;20032;-77
2023/07/15 06:02:12;;;;;;;8.68;3.25;;;;;;;21.07;59.58;100341.81;5075000;28;20036;-77
2023/07/15 06:04:40;;;;;;;6.72;3.42;;;;;;;21.27;59.83;100353.03;5092692;28;20493;-77
2023/07/15 06:07:05;;;;;;;6.53;3.20;;;;;;;21.37;59.25;100338.47;5108185;28;20030;-77
2023/07/15 06:09:30;;;;;;;5.65;2.90;;;;;;;21.46;59.71;100334.66;5091784;28;20020;-77
2023/07/15 06:11:58;;;;;;;8.35;2.88;;;;;;;21.55;60.57;100341.69;5092911;28;20459;-77
2023/07/15 06:14:26;;;;;;;7.82;2.90;;;;;;;21.66;59.92;100353.97;5075944;28;20054;-77
2023/07/15 06:16:52;;;;;;;6.07;2.88;;;;;;;21.59;60.47;100353.88;5093832;28;20368;-77
2023/07/15 06:19:17;;;;;;;6.30;2.95;;;;;;;21.61;61.29;100345.56;5091891;28;20051;-77
2023/07/15 06:21:43;;;;;;;4.28;2.97;;;;;;;21.77;61.87;100340.03;5095911;28;20139;-77
2023/07/15 06:24:08;;;;;;;6.85;2.75;;;;;;;21.88;61.56;100336.00;5116530;28;20027;-77
2023/07/15 06:26:34;;;;;;;10.82;2.90;;;;;;;22.06;61.58;100346.50;5093416;28;20082;-77
2023/07/15 06:29:00;;;;;;;5.50;3.05;;;;;;;21.85;60.99;100336.38;5073560;28;20045;-77
2023/07/15 06:31:26;;;;;;;5.85;2.97;;;;;;;21.83;62.13;100331.16;5074090;28;20028;-77
2023/07/15 06:33:54;;;;;;;5.97;3.20;;;;;;;21.90;62.27;100359.19;5092655;28;20020;-77
2023/07/15 06:36:20;;;;;;;7.43;3.08;;;;;;;21.82;62.74;100353.84;5090718;28;20019;-77
2023/07/15 06:38:48;;;;;;;4.47;3.03;;;;;;;21.88;62.61;100357.69;5077976;28;20482;-77
2023/07/15 06:41:16;;;;;;;5.13;2.80;;;;;;;21.96;62.18;100350.31;5092130;28;20020;-77
2023/07/15 06:43:44;;;;;;;5.63;2.30;;;;;;;22.32;61.92;100360.50;5091731;28;20030;-77
2023/07/15 06:46:11;;;;;;;3.30;2.50;;;;;;;22.43;61.27;100360.03;5073704;28;20052;-77
2023/07/15 06:48:36;;;;;;;7.95;2.90;;;;;;;22.41;62.00;100347.69;5091597;28;20154;-77
2023/07/15 06:51:04;;;;;;;3.30;2.38;;;;;;;22.42;61.68;100344.00;5107392;28;20055;-77
2023/07/15 06:53:32;;;;;;;5.75;2.30;;;;;;;22.60;61.88;100346.31;5105674;28;20058;-77
2023/07/15 06:55:57;;;;;;;6.55;2.50;;;;;;;22.64;61.68;100340.31;5092225;28;20030;-77
2023/07/15 06:58:23;;;;;;;4.40;2.78;;;;;;;22.77;61.26;100342.38;5090100;28;20028;-77
2023/07/15 07:00:48;;;;;;;3.63;2.38;;;;;;;22.73;61.65;100315.81;5091858;28;20096;-77
2023/07/15 07:03:16;;;;;;;5.57;2.10;;;;;;;23.02;59.87;100358.34;5091947;28;20031;-77
2023/07/15 07:05:42;;;;;;;5.60;2.58;;;;;;;22.99;59.71;100353.31;5073436;28;20379;-77
2023/07/15 07:08:09;;;;;;;5.10;2.38;;;;;;;23.05;59.52;100349.84;5091433;28;20020;-77
2023/07/15 07:10:34;;;;;;;4.07;2.58;;;;;;;22.95;58.58;100331.16;5083924;28;20043;-77
2023/07/15 07:13:01;;;;;;;11.82;2.50;;;;;;;22.99;59.05;100342.47;5074497;28;20399;-77
2023/07/15 07:15:29;;;;;;;2.65;2.45;;;;;;;23.10;58.61;100350.13;5096054;28;20110;-77
2023/07/15 07:17:55;;;;;;;8.43;2.10;;;;;;;23.33;57.41;100348.09;5095641;28;20028;-77
2023/07/15 07:20:21;;;;;;;3.10;2.38;;;;;;;23.46;58.03;100354.69;5095270;28;20026;-77
2023/07/15 07:22:46;;;;;;;8.18;2.50;;;;;;;23.63;57.17;100358.00;5077616;28;20459;-77
2023/07/15 07:25:14;;;;;;;3.40;2.13;;;;;;;23.71;57.42;100361.44;5095172;28;20036;-77
2023/07/15 07:27:40;;;;;;;5.97;2.60;;;;;;;23.82;56.32;100362.78;5095244;28;20020;-77
2023/07/15 07:30:08;;;;;;;4.50;2.20;;;;;;;23.91;56.02;100358.06;5094033;28;20031;-77
2023/07/15 07:32:34;;;;;;;5.45;2.35;;;;;;;24.03;56.73;100364.63;5095578;28;20035;-77
2023/07/15 07:34:59;;;;;;;5.22;2.30;;;;;;;24.00;57.41;100363.16;5106825;28;20025;-77
2023/07/15 07:37:25;;;;;;;7.00;2.47;;;;;;;23.85;57.46;100370.53;5085598;28;20427;-77
2023/07/15 07:39:51;;;;;;;4.03;2.38;;;;;;;23.75;57.99;100373.59;5109563;28;20027;-77
2023/07/15 07:42:16;;;;;;;3.47;2.20;;;;;;;23.67;58.58;100367.41;5095249;28;20494;-76
2023/07/15 07:44:42;;;;;;;3.55;1.95;;;;;;;23.66;59.57;100360.31;5094578;28;20056;-76
2023/07/15 07:47:07;;;;;;;3.92;2.00;;;;;;;23.69;59.58;100359.94;5095300;28;20027;-77
2023/07/15 07:49:32;;;;;;;4.65;1.80;;;;;;;23.71;60.14;100357.91;5078264;28;20071;-76
2023/07/15 07:51:58;;;;;;;5.07;2.10;;;;;;;23.74;59.58;100341.22;5057953;28;20035;-76
2023/07/15 07:54:26;;;;;;;3.13;2.00;;;;;;;23.74;60.52;100352.06;5074429;28;20517;-77
2023/07/15 07:56:51;;;;;;;3.83;2.17;;;;;;;23.89;60.13;100365.59;5082897;28;20039;-77
2023/07/15 07:59:16;;;;;;;4.93;2.33;;;;;;;23.90;59.79;100351.78;5095002;28;20020;-77
2023/07/15 08:01:42;;;;;;;3.17;1.80;;;;;;;23.85;60.05;100362.38;5068791;28;20113;-77
2023/07/15 08:04:07;;;;;;;4.65;2.00;;;;;;;23.85;60.73;100361.56;5074426;28;20028;-76
2023/07/15 08:06:33;;;;;;;5.43;1.80;;;;;;;23.84;60.84;100382.44;5066753;28;20455;-76
2023/07/15 08:09:00;;;;;;;2.33;1.90;;;;;;;23.77;61.37;100376.97;5076694;28;20022;-77
2023/07/15 08:11:26;;;;;;;2.95;1.77;;;;;;;23.92;61.29;100376.06;5076819;28;20020;-77
2023/07/15 08:13:53;;;;;;;3.38;1.88;;;;;;;23.98;60.96;100370.66;5095005;28;20074;-77
2023/07/15 08:16:36;;;;;;;3.70;1.98;;;;;;;24.01;61.25;100367.56;5089851;28;20115;-77
2023/07/15 08:19:07;;;;;;;2.67;1.92;;;;;;;24.14;60.93;100383.13;5090886;28;20152;-77
2023/07/15 08:21:34;;;;;;;4.18;1.80;;;;;;;24.38;60.24;100367.41;5092982;28;20047;-77
2023/07/15 08:23:59;;;;;;;1.95;1.77;;;;;;;24.57;60.01;100383.03;5076682;28;20038;-77
2023/07/15 08:26:25;;;;;;;2.80;1.80;;;;;;;24.62;59.67;100379.72;5076643;28;20020;-77
2023/07/15 08:28:55;;;;;;;2.20;1.70;;;;;;;24.54;59.63;100388.88;5076579;28;20048;-77
2023/07/15 08:31:21;;;;;;;5.32;1.95;;;;;;;24.38;59.06;100386.44;5076629;28;20077;-76
2023/07/15 08:33:47;;;;;;;4.15;2.00;;;;;;;24.27;59.81;100382.41;5094668;28;20059;-77
2023/07/15 08:36:15;;;;;;;5.18;2.28;;;;;;;24.19;59.58;100375.22;5071647;28;20059;-77
2023/07/15 08:38:40;;;;;;;4.05;2.10;;;;;;;24.19;60.22;100377.94;5093992;28;20028;-77
2023/07/15 08:41:07;;;;;;;4.50;2.15;;;;;;;24.23;60.14;100398.22;5076343;28;20016;-77
2023/07/15 08:43:32;;;;;;;4.88;2.22;;;;;;;24.32;59.26;100390.78;5067930;28;20119;-77
2023/07/15 08:46:11;;;;;;;6.13;2.67;;;;;;;24.32;58.55;100404.38;5090792;28;20131;-77
2023/07/15 08:48:36;;;;;;;;;;;;;;;24.51;58.38;100416.47;5091815;28;20020;-77
2023/07/15 08:51:05;;;;;;;5.18;2.55;;;;;;;24.25;57.71;100404.31;5074207;28;19908;-77
2023/07/15 08:53:34;;;;;;;6.55;3.05;;;;;;;24.14;58.55;100409.47;5075099;28;20028;-77
2023/07/15 08:56:01;;;;;;;8.65;3.13;;;;;;;24.06;59.47;100407.75;5093657;28;20036;-76
2023/07/15 08:58:27;;;;;;;4.65;2.63;;;;;;;24.03;58.96;100421.69;5093196;28;20028;-77
2023/07/15 09:00:54;;;;;;;5.80;2.60;;;;;;;23.92;58.85;100431.22;5074967;28;20425;-77
2023/07/15 09:03:22;;;;;;;9.13;2.95;;;;;;;23.80;58.14;100438.22;5059068;28;20110;-77
2023/07/15 09:05:48;;;;;;;7.22;2.38;;;;;;;23.67;58.23;100435.31;5075480;28;20456;-76
2023/07/15 09:08:15;;;;;;;6.28;2.72;;;;;;;23.57;58.27;100438.34;5109867;28;20019;-76
2023/07/15 09:10:57;;;;;;;5.25;2.90;;;;;;;23.43;58.48;100422.94;5092611;28;20441;-76
2023/07/15 09:13:28;;;;;;;2.95;2.50;;;;;;;23.42;57.55;100440.25;5085303;28;20097;-76
2023/07/15 09:16:03;;;;;;;6.72;2.72;;;;;;;23.44;58.17;100435.47;5093627;28;20531;-76
2023/07/15 09:18:29;;;;;;;4.00;2.97;;;;;;;23.43;58.65;100436.50;5075310;28;20031;-77
2023/07/15 09:21:16;;;;;;;4.25;2.58;;;;;;;23.52;57.64;100433.47;5093777;28;20028;-76
2023/07/15 09:23:45;;;;;;;9.75;3.47;;;;;;;23.62;57.72;100430.47;5074434;28;20433;-76
2023/07/15 09:26:14;;;;;;;9.63;3.10;;;;;;;23.74;57.50;100436.25;5075237;28;20432;-77
2023/07/15 09:28:41;;;;;;;4.35;3.08;;;;;;;23.85;57.49;100429.47;5074749;28;20089;-77
2023/07/15 09:31:09;;;;;;;8.93;3.25;;;;;;;23.80;57.27;100428.19;5093102;28;20058;-77
2023/07/15 09:33:42;;;;;;;6.90;2.72;;;;;;;23.79;57.93;100439.22;5091119;28;20020;-77
2023/07/15 09:36:11;;;;;;;6.18;2.90;;;;;;;23.72;58.58;100439.16;5092922;28;20032;-76
2023/07/15 09:38:38;;;;;;;3.75;2.83;;;;;;;23.72;58.43;100452.75;5074063;28;20047;-76
2023/07/15 09:41:07;;;;;;;7.30;2.97;;;;;;;23.68;58.51;100442.41;5093068;28;20020;-77
2023/07/15 09:43:49;;;;;;;;;;;;;;;23.85;58.33;100446.59;5093018;28;20043;-77
2023/07/15 09:46:17;;;;;;;6.65;3.00;;;;;;;23.66;58.14;100448.03;5092835;28;20034;-76
2023/07/15 09:48:47;;;;;;;7.63;2.90;;;;;;;23.70;58.67;100459.38;5092769;28;20027;-76
2023/07/15 09:51:15;;;;;;;5.20;2.70;;;;;;;23.67;58.78;100474.16;5074979;28;20032;-77
2023/07/15 09:53:49;;;;;;;11.20;2.92;;;;;;;23.67;59.52;100479.59;5092010;28;20058;-76
2023/07/15 09:56:34;;;;;;;5.35;2.60;;;;;;;23.66;60.33;100485.22;5093055;28;20023;-76
2023/07/15 09:59:06;;;;;;;5.07;2.55;;;;;;;23.53;60.85;100475.91;5108326;28;20028;-77
2023/07/15 10:01:37;;;;;;;8.32;2.42;;;;;;;23.50;61.41;100473.56;5093093;28;20028;-76
2023/07/15 10:04:35;;;;;;;3.53;2.45;;;;;;;23.44;60.90;100471.63;5091425;28;20126;-76
2023/07/15 10:07:04;;;;;;;5.97;3.08;;;;;;;23.39;61.29;100462.34;5074970;28;20024;-77
2023/07/15 10:09:33;;;;;;;9.30;2.90;;;;;;;23.40;62.24;100461.31;5074386;28;20024;-77
2023/07/15 10:12:00;;;;;;;7.40;2.97;;;;;;;23.41;63.06;100466.53;5074823;28;20023;-77
2023/07/15 10:14:27;;;;;;;8.70;2.45;;;;;;;23.33;65.11;100462.06;5074590;28;20024;-77
2023/07/15 10:17:16;;;;;;;4.95;2.70;;;;;;;23.30;65.90;100462.47;5076183;28;20032;-76
2023/07/15 10:19:49;;;;;;;;;;;;;;;23.35;65.09;100441.03;5067743;28;20039;-76
2023/07/15 10:22:18;;;;;;;7.47;3.00;;;;;;;22.97;69.29;100442.16;5091697;28;19916;-77
2023/07/15 10:24:51;;;;;;;;;;;;;;;23.18;66.48;100433.25;5091789;28;20051;-77
2023/07/15 10:27:16;;;;;;;5.47;3.17;;;;;;;23.00;69.24;100436.38;5092047;28;19912;-77
2023/07/15 10:29:44;;;;;;;10.20;2.80;;;;;;;22.93;69.43;100430.81;5086892;28;20501;-77
2023/07/15 10:32:14;;;;;;;4.13;3.00;;;;;;;22.94;70.44;100442.50;5091779;28;20089;-77
2023/07/15 10:34:51;;;;;;;5.88;2.88;;;;;;;22.95;70.49;100431.53;5074016;28;20024;-77
2023/07/15 10:37:18;;;;;;;8.00;3.53;;;;;;;23.02;71.59;100432.44;5092205;28;20016;-77
2023/07/15 10:39:46;;;;;;;5.40;3.15;;;;;;;23.08;72.41;100426.25;5073598;28;20024;-77
2023/07/15 10:42:22;;;;;;;6.03;3.20;;;;;;;23.09;70.75;100427.97;5073803;28;20032;-77
2023/07/15 10:44:54;;;;;;;4.90;2.78;;;;;;;22.99;70.22;100426.56;5070614;28;20295;-77
2023/07/15 10:47:20;;;;;;;4.18;2.60;;;;;;;23.16;71.10;100444.31;5094678;28;20036;-77
2023/07/15 10:49:48;;;;;;;4.95;2.80;;;;;;;23.09;71.59;100446.94;5077918;28;20051;-77
2023/07/15 10:52:20;;;;;;;6.60;2.63;;;;;;;23.13;70.56;100428.41;5078023;28;20024;-77
2023/07/15 10:54:45;;;;;;;4.82;2.90;;;;;;;23.40;70.25;100443.16;5094252;28;20032;-76
2023/07/15 10:57:15;;;;;;;4.10;2.83;;;;;;;23.46;70.04;100455.97;5095440;28;20423;-76
2023/07/15 10:59:47;;;;;;;6.45;3.15;;;;;;;23.42;69.55;100460.09;5077196;28;20118;-77
2023/07/15 11:02:13;;;;;;;4.55;3.00;;;;;;;23.33;69.18;100448.50;5077304;28;20380;-77
2023/07/15 11:04:40;;;;;;;9.10;2.75;;;;;;;23.21;69.02;100430.19;5095304;28;20073;-77
2023/07/15 11:07:08;;;;;;;4.07;2.95;;;;;;;23.35;69.78;100445.59;5079633;28;20119;-77
2023/07/15 11:09:43;;;;;;;4.25;3.08;;;;;;;23.58;67.69;100468.00;5090900;28;20081;-77
2023/07/15 11:12:11;;;;;;;4.35;2.70;;;;;;;23.89;68.36;100449.78;5075720;28;20024;-77
2023/07/15 11:14:43;;;;;;;4.93;2.80;;;;;;;23.96;65.20;100439.81;5093144;28;20353;-76
2023/07/15 11:17:15;;;;;;;2.97;2.40;;;;;;;24.13;63.49;100435.78;5077142;28;20540;-76
2023/07/15 11:19:40;;;;;;;4.55;2.85;;;;;;;24.03;62.98;100443.41;5076423;28;20023;-77
2023/07/15 11:22:09;;;;;;;6.82;2.83;;;;;;;23.90;62.84;100438.72;5094444;28;20380;-76
2023/07/15 11:24:34;;;;;;;4.00;2.70;;;;;;;23.90;61.15;100441.44;5094348;28;20034;-76
2023/07/15 11:27:02;;;;;;;5.03;2.55;;;;;;;23.94;61.33;100436.44;5095434;28;20470;-77
2023/07/15 11:29:29;;;;;;;4.70;2.40;;;;;;;24.03;62.19;100440.69;5095489;28;20020;-77